Time;durP1;ratioP1;P1;durP2;ratioP2;P2;SDS_P1;SDS_P2;PMS_P1;PMS_P2;Temp;Humidity;BMP_temperature;BMP_pressure;BME280_temperature;BME280_humidity;BME280_pressure;Samples;Min_cycle;Max_cycle;Signal;HPM_P1;HPM_P2
2024/01/18 00:02:17;;;;;;;33.67;15.67;;;;;;;;;;4959503;29;20050;-61
2024/01/18 00:04:43;;;;;;;33.87;15.40;;;;;;;;;;4961881;29;20281;-59
2024/01/18 00:07:08;;;;;;;39.45;17.95;;;;;;;;;;4961969;29;20034;-57
2024/01/18 00:09:34;;;;;;;36.93;16.50;;;;;;;;;;4956504;29;20039;-59
2024/01/18 00:11:59;;;;;;;39.10;17.67;;;;;;;;;;4959825;29;20062;-61
2024/01/18 00:14:25;;;;;;;35.95;15.95;;;;;;;;;;4964127;29;20039;-60
2024/01/18 00:16:50;;;;;;;34.43;17.47;;;;;;;;;;4959375;29;20115;-61
2024/01/18 00:19:15;;;;;;;36.27;16.57;;;;;;;;;;4959743;29;20063;-60
2024/01/18 00:21:40;;;;;;;34.63;17.03;;;;;;;;;;4959556;29;20019;-59
2024/01/18 00:24:06;;;;;;;44.60;20.13;;;;;;;;;;4960104;29;20121;-59
2024/01/18 00:26:32;;;;;;;42.80;19.38;;;;;;;;;;4959978;29;20035;-57
2024/01/18 00:28:57;;;;;;;54.70;21.50;;;;;;;;;;4969652;29;20039;-60
2024/01/18 00:31:23;;;;;;;65.97;25.20;;;;;;;;;;4970117;29;20038;-58
2024/01/18 00:33:48;;;;;;;50.07;21.60;;;;;;;;;;4965967;29;20286;-59
2024/01/18 00:36:14;;;;;;;46.70;19.73;;;;;;;;;;4965432;29;20047;-58
2024/01/18 00:38:39;;;;;;;44.73;18.93;;;;;;;;;;4973007;29;20269;-57
2024/01/18 00:41:04;;;;;;;41.20;17.57;;;;;;;;;;4966441;29;20054;-59
2024/01/18 00:43:30;;;;;;;33.25;15.65;;;;;;;;;;4964341;29;20035;-56
2024/01/18 00:45:55;;;;;;;32.73;16.50;;;;;;;;;;4961803;29;20066;-59
2024/01/18 00:48:21;;;;;;;36.30;16.53;;;;;;;;;;4964408;29;20032;-58
2024/01/18 00:50:47;;;;;;;33.93;16.37;;;;;;;;;;4966706;29;20262;-59
2024/01/18 00:53:12;;;;;;;23.87;12.83;;;;;;;;;;4959170;29;20091;-58
2024/01/18 00:55:38;;;;;;;32.55;16.48;;;;;;;;;;4959462;29;20039;-56
2024/01/18 00:58:03;;;;;;;32.97;16.33;;;;;;;;;;4959342;29;20047;-56
2024/01/18 01:00:29;;;;;;;32.95;15.85;;;;;;;;;;4959365;29;20027;-60
2024/01/18 01:02:54;;;;;;;35.57;16.60;;;;;;;;;;4962268;29;20055;-59
2024/01/18 01:05:20;;;;;;;33.97;17.48;;;;;;;;;;4966185;29;20095;-60
2024/01/18 01:07:45;;;;;;;35.40;17.93;;;;;;;;;;4970384;29;20031;-58
2024/01/18 01:10:10;;;;;;;34.23;16.30;;;;;;;;;;4959366;29;20285;-59
2024/01/18 01:12:36;;;;;;;32.70;16.27;;;;;;;;;;4959297;29;20061;-58
2024/01/18 01:15:02;;;;;;;35.53;15.40;;;;;;;;;;4966643;29;20039;-58
2024/01/18 01:17:28;;;;;;;34.85;15.20;;;;;;;;;;4964084;29;20064;-59
2024/01/18 01:19:53;;;;;;;35.87;16.17;;;;;;;;;;4967149;29;20032;-57
2024/01/18 01:22:19;;;;;;;30.30;14.27;;;;;;;;;;4959004;29;20103;-59
2024/01/18 01:24:44;;;;;;;37.35;15.88;;;;;;;;;;4964173;29;20038;-58
2024/01/18 01:27:10;;;;;;;32.43;15.67;;;;;;;;;;4942311;29;20046;-58
2024/01/18 01:29:35;;;;;;;31.07;15.60;;;;;;;;;;4958858;29;20051;-61
2024/01/18 01:32:00;;;;;;;36.90;17.20;;;;;;;;;;4958695;29;20036;-60
2024/01/18 01:34:26;;;;;;;37.27;16.80;;;;;;;;;;4961635;29;20036;-61
2024/01/18 01:36:51;;;;;;;42.60;17.42;;;;;;;;;;4958753;29;20066;-58
2024/01/18 01:39:17;;;;;;;36.07;17.27;;;;;;;;;;4966552;29;20035;-59
2024/01/18 01:41:42;;;;;;;32.37;15.77;;;;;;;;;;4960428;29;20270;-58
2024/01/18 01:44:08;;;;;;;32.57;16.50;;;;;;;;;;4959450;29;20297;-54
2024/01/18 01:46:33;;;;;;;37.97;18.15;;;;;;;;;;4958499;29;20047;-58
2024/01/18 01:49:02;;;;;;;44.30;17.30;;;;;;;;;;4961663;29;20043;-60
2024/01/18 01:51:36;;;;;;;38.05;18.00;;;;;;;;;;4959490;29;20056;-59
2024/01/18 01:54:03;;;;;;;33.60;15.20;;;;;;;;;;4968667;29;20036;-60
2024/01/18 01:56:29;;;;;;;31.52;15.07;;;;;;;;;;4960118;29;20023;-55
2024/01/18 01:58:55;;;;;;;34.33;16.65;;;;;;;;;;4952202;29;20028;-58
2024/01/18 02:01:22;;;;;;;33.78;16.58;;;;;;;;;;4959037;29;20043;-59
2024/01/18 02:03:47;;;;;;;29.83;16.02;;;;;;;;;;4958256;29;20047;-59
2024/01/18 02:06:14;;;;;;;26.00;13.13;;;;;;;;;;4957843;29;20028;-57
2024/01/18 02:08:39;;;;;;;38.33;16.23;;;;;;;;;;4957421;29;20270;-56
2024/01/18 02:11:05;;;;;;;32.13;14.13;;;;;;;;;;4957865;29;20080;-60
2024/01/18 02:13:31;;;;;;;28.77;12.45;;;;;;;;;;4963262;29;20031;-59
2024/01/18 02:15:56;;;;;;;28.73;15.27;;;;;;;;;;4960521;29;20035;-58
2024/01/18 02:18:21;;;;;;;31.47;14.17;;;;;;;;;;4962266;29;20258;-59
2024/01/18 02:20:47;;;;;;;27.80;13.73;;;;;;;;;;4957800;29;20261;-60
2024/01/18 02:23:13;;;;;;;29.60;14.82;;;;;;;;;;4965796;29;20031;-57
2024/01/18 02:25:39;;;;;;;32.28;14.55;;;;;;;;;;4941807;29;20032;-59
2024/01/18 02:28:04;;;;;;;26.33;12.80;;;;;;;;;;4966349;29;20054;-59
2024/01/18 02:30:30;;;;;;;28.80;14.02;;;;;;;;;;4957191;29;20110;-58
2024/01/18 02:32:55;;;;;;;33.08;14.23;;;;;;;;;;4955989;29;20047;-57
2024/01/18 02:35:21;;;;;;;26.73;12.80;;;;;;;;;;4958095;29;20095;-60
2024/01/18 02:37:47;;;;;;;20.88;11.35;;;;;;;;;;4957439;29;20197;-59
2024/01/18 02:40:12;;;;;;;30.03;14.43;;;;;;;;;;4957501;29;20064;-59
2024/01/18 02:42:38;;;;;;;34.53;15.20;;;;;;;;;;4956603;29;20294;-59
2024/01/18 02:45:04;;;;;;;27.52;14.15;;;;;;;;;;4958947;29;20135;-58
2024/01/18 02:47:30;;;;;;;30.15;14.70;;;;;;;;;;4958890;29;20032;-57
2024/01/18 02:49:56;;;;;;;23.17;10.13;;;;;;;;;;4958051;29;20031;-56
2024/01/18 02:52:22;;;;;;;27.90;14.32;;;;;;;;;;4957272;29;20032;-58
2024/01/18 02:54:47;;;;;;;29.63;14.97;;;;;;;;;;4964598;29;20046;-56
2024/01/18 02:57:13;;;;;;;28.63;14.30;;;;;;;;;;4961904;29;20038;-59
2024/01/18 02:59:38;;;;;;;34.53;15.10;;;;;;;;;;4962145;29;20032;-57
2024/01/18 03:02:04;;;;;;;27.40;13.32;;;;;;;;;;4957023;29;20028;-59
2024/01/18 03:04:29;;;;;;;29.50;13.35;;;;;;;;;;4960043;29;20043;-56
2024/01/18 03:06:54;;;;;;;29.63;12.53;;;;;;;;;;4956906;29;20043;-57
2024/01/18 03:09:20;;;;;;;26.13;11.85;;;;;;;;;;4958512;29;20047;-57
2024/01/18 03:11:46;;;;;;;29.60;12.90;;;;;;;;;;4957042;29;20043;-59
2024/01/18 03:14:11;;;;;;;26.40;12.80;;;;;;;;;;4956826;29;20099;-58
2024/01/18 03:16:42;;;;;;;;;;;;;;;;;;4957301;29;20032;-58
2024/01/18 03:19:11;;;;;;;26.23;12.13;;;;;;;;;;4957136;29;19918;-57
2024/01/18 03:21:37;;;;;;;27.88;12.27;;;;;;;;;;4956041;28;20028;-55
2024/01/18 03:24:02;;;;;;;26.87;12.87;;;;;;;;;;4961179;29;20043;-57
2024/01/18 03:26:28;;;;;;;23.23;12.55;;;;;;;;;;4964182;29;20130;-60
2024/01/18 03:28:54;;;;;;;26.50;11.15;;;;;;;;;;4960105;29;20031;-58
2024/01/18 03:31:20;;;;;;;19.70;9.27;;;;;;;;;;4963982;29;20091;-59
2024/01/18 03:33:45;;;;;;;25.10;11.70;;;;;;;;;;4957744;29;20047;-58
2024/01/18 03:36:11;;;;;;;23.13;10.37;;;;;;;;;;4963480;29;20095;-57
2024/01/18 03:38:36;;;;;;;24.20;11.13;;;;;;;;;;4957358;29;20024;-58
2024/01/18 03:41:02;;;;;;;21.80;10.73;;;;;;;;;;4963787;29;20043;-60
2024/01/18 03:43:27;;;;;;;21.70;10.63;;;;;;;;;;4956497;29;20047;-58
2024/01/18 03:45:53;;;;;;;21.05;11.80;;;;;;;;;;4959310;29;20043;-58
2024/01/18 03:48:18;;;;;;;22.10;10.65;;;;;;;;;;4958077;29;20090;-56
2024/01/18 03:50:44;;;;;;;31.02;11.30;;;;;;;;;;4952451;29;20036;-57
2024/01/18 03:53:09;;;;;;;21.70;9.93;;;;;;;;;;4956608;29;20043;-59
2024/01/18 03:55:34;;;;;;;34.17;11.90;;;;;;;;;;4963115;29;20040;-59
2024/01/18 03:58:00;;;;;;;25.90;10.20;;;;;;;;;;4956568;29;20028;-56
2024/01/18 04:00:25;;;;;;;27.65;11.55;;;;;;;;;;4956531;29;20047;-57
2024/01/18 04:02:52;;;;;;;28.70;11.23;;;;;;;;;;4956309;29;20064;-58
2024/01/18 04:05:18;;;;;;;22.77;11.00;;;;;;;;;;4963352;29;20039;-60
2024/01/18 04:07:43;;;;;;;26.90;11.10;;;;;;;;;;4956878;29;20035;-56
2024/01/18 04:10:09;;;;;;;23.37;10.43;;;;;;;;;;4958393;29;20043;-56
2024/01/18 04:12:34;;;;;;;23.80;11.35;;;;;;;;;;4956434;29;20454;-60
2024/01/18 04:14:59;;;;;;;19.50;9.87;;;;;;;;;;4962329;29;20114;-57
2024/01/18 04:17:25;;;;;;;24.17;10.77;;;;;;;;;;4957211;29;20038;-58
2024/01/18 04:19:51;;;;;;;29.07;11.33;;;;;;;;;;4962601;29;20031;-57
2024/01/18 04:22:16;;;;;;;22.90;11.13;;;;;;;;;;4956296;29;20333;-58
2024/01/18 04:24:42;;;;;;;23.27;10.00;;;;;;;;;;4958956;29;20272;-58
2024/01/18 04:27:07;;;;;;;21.80;9.30;;;;;;;;;;4958334;29;20278;-54
2024/01/18 04:29:33;;;;;;;27.92;9.65;;;;;;;;;;4958899;29;20281;-59
2024/01/18 04:31:58;;;;;;;16.70;7.87;;;;;;;;;;4958492;29;20055;-59
2024/01/18 04:34:24;;;;;;;16.00;7.60;;;;;;;;;;4959938;29;20407;-60
2024/01/18 04:36:49;;;;;;;21.10;8.10;;;;;;;;;;4960533;29;20044;-58
2024/01/18 04:39:15;;;;;;;24.50;9.95;;;;;;;;;;4943249;29;20052;-58
2024/01/18 04:41:40;;;;;;;19.55;8.95;;;;;;;;;;4960420;29;20031;-58
2024/01/18 04:44:05;;;;;;;20.97;9.10;;;;;;;;;;4959741;29;20043;-60
2024/01/18 04:46:31;;;;;;;17.10;8.80;;;;;;;;;;4960848;29;20040;-55
2024/01/18 04:48:57;;;;;;;23.05;8.40;;;;;;;;;;4959506;29;20020;-58
2024/01/18 04:51:22;;;;;;;19.75;8.05;;;;;;;;;;4970103;29;20122;-60
2024/01/18 04:53:48;;;;;;;22.02;8.77;;;;;;;;;;4943059;29;20047;-60
2024/01/18 04:56:14;;;;;;;18.85;7.80;;;;;;;;;;4962123;29;20064;-58
2024/01/18 04:58:40;;;;;;;18.67;8.65;;;;;;;;;;4962945;29;20058;-59
2024/01/18 05:01:05;;;;;;;16.83;6.65;;;;;;;;;;4968528;29;20043;-59
2024/01/18 05:03:31;;;;;;;22.00;8.75;;;;;;;;;;4966544;29;20042;-59
2024/01/18 05:05:57;;;;;;;20.75;8.75;;;;;;;;;;4963441;29;20094;-56
2024/01/18 05:08:23;;;;;;;14.27;6.25;;;;;;;;;;4942594;29;20055;-59
2024/01/18 05:10:48;;;;;;;21.65;8.05;;;;;;;;;;4962753;29;20040;-60
2024/01/18 05:13:13;;;;;;;16.08;7.00;;;;;;;;;;4959256;29;20035;-60
2024/01/18 05:15:39;;;;;;;17.67;7.50;;;;;;;;;;4959109;29;20023;-61
2024/01/18 05:18:06;;;;;;;19.30;8.23;;;;;;;;;;4959404;29;20035;-58
2024/01/18 05:20:33;;;;;;;24.83;9.00;;;;;;;;;;4958864;29;20024;-59
2024/01/18 05:22:58;;;;;;;14.68;7.45;;;;;;;;;;4958685;29;20048;-60
2024/01/18 05:25:24;;;;;;;15.32;8.10;;;;;;;;;;4958827;29;20032;-55
2024/01/18 05:27:49;;;;;;;32.72;12.25;;;;;;;;;;4958763;29;20039;-59
2024/01/18 05:30:15;;;;;;;15.70;7.57;;;;;;;;;;4967887;29;20035;-60
2024/01/18 05:32:40;;;;;;;18.20;6.10;;;;;;;;;;4958554;29;20035;-58
2024/01/18 05:35:06;;;;;;;14.50;7.10;;;;;;;;;;4958816;29;20282;-58
2024/01/18 05:37:31;;;;;;;30.47;7.53;;;;;;;;;;4959175;29;20031;-60
2024/01/18 05:39:57;;;;;;;17.75;8.40;;;;;;;;;;4958441;29;20038;-59
2024/01/18 05:42:27;;;;;;;17.43;8.20;;;;;;;;;;4960981;29;20032;-58
2024/01/18 05:44:52;;;;;;;13.73;7.28;;;;;;;;;;4957585;29;20058;-60
2024/01/18 05:47:18;;;;;;;13.50;5.90;;;;;;;;;;4961429;29;20035;-60
2024/01/18 05:49:43;;;;;;;13.57;6.87;;;;;;;;;;4958410;29;20099;-59
2024/01/18 05:52:09;;;;;;;16.75;6.97;;;;;;;;;;4961609;29;20270;-55
2024/01/18 05:54:34;;;;;;;14.43;6.10;;;;;;;;;;4958096;29;20031;-59
2024/01/18 05:57:01;;;;;;;16.10;6.30;;;;;;;;;;4958060;29;20055;-59
2024/01/18 05:59:27;;;;;;;15.20;7.15;;;;;;;;;;4958048;29;20042;-56
2024/01/18 06:01:53;;;;;;;24.38;7.32;;;;;;;;;;4958191;29;20023;-57
2024/01/18 06:04:18;;;;;;;11.40;6.80;;;;;;;;;;4957697;29;20036;-60
2024/01/18 06:06:44;;;;;;;17.63;7.13;;;;;;;;;;4961721;29;20036;-59
2024/01/18 06:09:09;;;;;;;23.43;5.63;;;;;;;;;;4958159;29;20052;-54
2024/01/18 06:11:35;;;;;;;11.50;6.03;;;;;;;;;;4963523;29;20038;-57
2024/01/18 06:14:00;;;;;;;12.97;6.07;;;;;;;;;;4957929;29;20035;-59
2024/01/18 06:16:25;;;;;;;11.68;5.75;;;;;;;;;;4957291;29;20293;-58
2024/01/18 06:18:52;;;;;;;17.10;7.33;;;;;;;;;;4957283;29;20103;-56
2024/01/18 06:21:17;;;;;;;15.75;5.90;;;;;;;;;;4957669;29;20034;-59
2024/01/18 06:23:43;;;;;;;17.90;6.25;;;;;;;;;;4957657;29;20106;-59
2024/01/18 06:26:10;;;;;;;10.25;5.20;;;;;;;;;;4960463;29;20046;-57
2024/01/18 06:28:35;;;;;;;19.35;6.55;;;;;;;;;;4960102;29;20054;-59
2024/01/18 06:31:00;;;;;;;14.03;5.97;;;;;;;;;;4958322;29;20039;-58
2024/01/18 06:33:26;;;;;;;16.88;5.47;;;;;;;;;;4961268;29;20357;-59
2024/01/18 06:35:52;;;;;;;16.23;8.37;;;;;;;;;;4967665;29;20030;-57
2024/01/18 06:38:20;;;;;;;11.27;6.47;;;;;;;;;;4961196;29;20274;-57
2024/01/18 06:40:46;;;;;;;18.83;7.07;;;;;;;;;;4957092;29;20032;-60
2024/01/18 06:43:11;;;;;;;17.73;6.15;;;;;;;;;;4958399;29;20066;-59
2024/01/18 06:45:36;;;;;;;15.80;6.37;;;;;;;;;;4956685;29;20103;-57
2024/01/18 06:48:02;;;;;;;14.85;6.30;;;;;;;;;;4965115;29;20411;-56
2024/01/18 06:50:27;;;;;;;10.20;5.23;;;;;;;;;;4955260;29;20051;-57
2024/01/18 06:52:53;;;;;;;18.85;7.28;;;;;;;;;;4959503;29;20040;-57
2024/01/18 06:55:19;;;;;;;21.77;7.47;;;;;;;;;;4956801;29;20070;-59
2024/01/18 06:57:50;;;;;;;18.05;7.05;;;;;;;;;;4944472;29;20020;-57
2024/01/18 07:00:16;;;;;;;14.65;6.80;;;;;;;;;;4956305;29;20063;-56
2024/01/18 07:02:42;;;;;;;20.00;7.30;;;;;;;;;;4955530;29;20059;-54
2024/01/18 07:05:07;;;;;;;15.47;6.90;;;;;;;;;;4956925;29;20036;-56
2024/01/18 07:07:33;;;;;;;19.50;8.07;;;;;;;;;;4964347;29;20023;-57
2024/01/18 07:09:59;;;;;;;23.40;7.93;;;;;;;;;;4956802;29;20055;-56
2024/01/18 07:12:27;;;;;;;11.25;5.80;;;;;;;;;;4956777;29;20032;-55
2024/01/18 07:14:53;;;;;;;19.38;9.32;;;;;;;;;;4955573;29;20039;-58
2024/01/18 07:17:18;;;;;;;12.77;6.33;;;;;;;;;;4957630;29;20074;-57
2024/01/18 07:19:44;;;;;;;17.42;7.85;;;;;;;;;;4939673;29;20028;-58
2024/01/18 07:22:10;;;;;;;16.73;6.60;;;;;;;;;;4944011;29;20047;-57
2024/01/18 07:24:35;;;;;;;18.40;8.18;;;;;;;;;;4956769;29;20149;-56
2024/01/18 07:27:00;;;;;;;21.00;8.37;;;;;;;;;;4958407;29;20099;-57
2024/01/18 07:29:26;;;;;;;15.83;8.20;;;;;;;;;;4961925;29;20281;-57
2024/01/18 07:31:51;;;;;;;24.20;9.20;;;;;;;;;;4941248;29;20273;-55
2024/01/18 07:34:16;;;;;;;16.27;8.23;;;;;;;;;;4957638;29;20354;-56
2024/01/18 07:36:45;;;;;;;13.80;6.30;;;;;;;;;;4956064;29;20043;-57
2024/01/18 07:39:11;;;;;;;17.23;8.63;;;;;;;;;;4964863;29;20035;-57
2024/01/18 07:41:36;;;;;;;18.80;7.90;;;;;;;;;;4956635;29;20055;-55
2024/01/18 07:44:01;;;;;;;13.13;7.47;;;;;;;;;;4955369;29;20048;-56
2024/01/18 07:46:27;;;;;;;19.35;10.10;;;;;;;;;;4956187;29;20055;-57
2024/01/18 07:48:53;;;;;;;16.33;7.53;;;;;;;;;;4954823;29;20076;-55
2024/01/18 07:51:18;;;;;;;16.02;7.90;;;;;;;;;;4956467;29;20039;-54
2024/01/18 07:53:44;;;;;;;14.50;8.40;;;;;;;;;;4955672;29;20100;-57
2024/01/18 07:56:11;;;;;;;19.73;7.83;;;;;;;;;;4955714;29;20040;-56
2024/01/18 07:58:40;;;;;;;21.58;8.68;;;;;;;;;;4960934;29;20298;-60
2024/01/18 08:01:06;;;;;;;16.25;7.18;;;;;;;;;;4945304;29;20538;-51
2024/01/18 08:03:31;;;;;;;17.35;7.32;;;;;;;;;;4956217;29;20120;-56
2024/01/18 08:05:57;;;;;;;16.13;6.23;;;;;;;;;;4956232;29;20039;-57
2024/01/18 08:08:23;;;;;;;23.05;8.30;;;;;;;;;;4957064;29;20292;-54
2024/01/18 08:10:49;;;;;;;;;;;;;;;;;;4960222;29;20075;-56
2024/01/18 08:13:14;;;;;;;15.20;8.10;;;;;;;;;;4960843;29;19922;-58
2024/01/18 08:15:41;;;;;;;26.83;10.10;;;;;;;;;;4960044;29;20055;-56
2024/01/18 08:18:07;;;;;;;54.33;11.63;;;;;;;;;;4964568;29;20042;-54
2024/01/18 08:20:32;;;;;;;21.63;9.57;;;;;;;;;;4959465;29;20032;-55
2024/01/18 08:22:57;;;;;;;28.40;10.57;;;;;;;;;;4963886;29;20035;-55
2024/01/18 08:25:23;;;;;;;24.53;11.63;;;;;;;;;;4962663;29;20032;-55
2024/01/18 08:27:52;;;;;;;20.38;9.10;;;;;;;;;;4962241;29;20046;-50
2024/01/18 08:30:18;;;;;;;21.15;8.57;;;;;;;;;;4970083;29;20028;-54
2024/01/18 08:32:43;;;;;;;15.38;7.80;;;;;;;;;;4960906;29;20042;-59
2024/01/18 08:35:10;;;;;;;15.10;7.05;;;;;;;;;;4961785;29;20031;-56
2024/01/18 08:37:35;;;;;;;21.52;7.53;;;;;;;;;;4959591;29;20117;-57
2024/01/18 08:40:01;;;;;;;19.33;7.83;;;;;;;;;;4970309;29;20059;-55
2024/01/18 08:42:26;;;;;;;15.65;8.80;;;;;;;;;;4959480;29;20039;-57
2024/01/18 08:44:52;;;;;;;25.65;8.98;;;;;;;;;;4959195;29;20102;-56
2024/01/18 08:47:17;;;;;;;18.70;7.60;;;;;;;;;;4959000;29;20035;-58
2024/01/18 08:49:43;;;;;;;23.20;8.00;;;;;;;;;;4958902;29;20270;-59
2024/01/18 08:52:08;;;;;;;22.43;8.33;;;;;;;;;;4959574;29;20324;-54
2024/01/18 08:54:34;;;;;;;15.53;7.83;;;;;;;;;;4960028;29;20278;-57
2024/01/18 08:56:59;;;;;;;16.00;6.97;;;;;;;;;;4958980;29;20305;-58
2024/01/18 08:59:25;;;;;;;18.20;7.68;;;;;;;;;;4961009;29;20046;-57
2024/01/18 09:01:50;;;;;;;20.93;8.87;;;;;;;;;;4942374;29;20040;-54
2024/01/18 09:04:16;;;;;;;15.52;6.72;;;;;;;;;;4965165;29;20115;-58
2024/01/18 09:06:43;;;;;;;19.30;7.40;;;;;;;;;;4958754;29;20043;-58
2024/01/18 09:09:12;;;;;;;17.20;5.90;;;;;;;;;;4966936;29;20031;-57
2024/01/18 09:11:38;;;;;;;15.20;6.28;;;;;;;;;;4959557;29;20036;-54
2024/01/18 09:14:03;;;;;;;19.35;6.03;;;;;;;;;;4961905;29;20039;-56
2024/01/18 09:16:30;;;;;;;14.35;6.15;;;;;;;;;;4958980;29;20032;-57
2024/01/18 09:18:56;;;;;;;13.93;5.82;;;;;;;;;;4958934;29;20058;-57
2024/01/18 09:21:22;;;;;;;9.93;5.30;;;;;;;;;;4950538;29;20063;-59
2024/01/18 09:23:48;;;;;;;12.23;5.83;;;;;;;;;;4958618;29;20059;-57
2024/01/18 09:26:13;;;;;;;17.25;6.03;;;;;;;;;;4958595;29;20063;-55
2024/01/18 09:28:39;;;;;;;10.90;6.03;;;;;;;;;;4958260;29;20035;-56
2024/01/18 09:31:04;;;;;;;12.37;6.30;;;;;;;;;;4958460;29;20174;-52
2024/01/18 09:33:29;;;;;;;18.83;5.83;;;;;;;;;;4966007;29;20038;-58
2024/01/18 09:35:55;;;;;;;12.57;5.50;;;;;;;;;;4967736;29;20070;-56
2024/01/18 09:38:21;;;;;;;9.43;4.70;;;;;;;;;;4958373;29;20039;-57
2024/01/18 09:40:47;;;;;;;16.55;3.97;;;;;;;;;;4953990;29;20281;-59
2024/01/18 09:43:14;;;;;;;10.27;3.97;;;;;;;;;;4962188;29;20068;-56
2024/01/18 09:45:41;;;;;;;9.85;3.97;;;;;;;;;;4964676;29;20078;-57
2024/01/18 09:48:07;;;;;;;8.73;3.27;;;;;;;;;;4958268;29;20027;-60
2024/01/18 09:50:39;;;;;;;16.35;5.07;;;;;;;;;;4961175;29;20274;-60
2024/01/18 09:53:05;;;;;;;13.17;4.67;;;;;;;;;;4959457;29;20039;-57
2024/01/18 09:55:31;;;;;;;9.23;4.00;;;;;;;;;;4958072;29;20276;-58
2024/01/18 09:57:58;;;;;;;9.67;3.63;;;;;;;;;;4957862;29;20051;-59
2024/01/18 10:00:26;;;;;;;8.60;3.30;;;;;;;;;;4960274;29;20108;-59
2024/01/18 10:02:52;;;;;;;10.87;4.83;;;;;;;;;;4958890;29;20276;-56
2024/01/18 10:05:18;;;;;;;9.20;3.57;;;;;;;;;;4958077;29;20277;-58
2024/01/18 10:07:44;;;;;;;8.40;3.55;;;;;;;;;;4957424;29;20329;-58
2024/01/18 10:10:13;;;;;;;5.70;2.83;;;;;;;;;;4957379;29;20041;-58
2024/01/18 10:12:40;;;;;;;137.53;62.27;;;;;;;;;;4957536;29;20055;-58
2024/01/18 10:15:06;;;;;;;7.77;3.43;;;;;;;;;;4960627;29;20031;-58
2024/01/18 10:17:32;;;;;;;8.13;3.93;;;;;;;;;;4957738;29;20027;-57
2024/01/18 10:19:58;;;;;;;6.65;2.67;;;;;;;;;;4965265;29;20039;-57
2024/01/18 10:22:23;;;;;;;7.45;2.35;;;;;;;;;;4943730;29;20031;-58
2024/01/18 10:24:49;;;;;;;6.20;2.58;;;;;;;;;;4965645;29;20023;-56
2024/01/18 10:27:15;;;;;;;6.85;2.65;;;;;;;;;;4962802;29;20042;-56
2024/01/18 10:29:40;;;;;;;3.45;2.30;;;;;;;;;;4954438;28;20038;-58
2024/01/18 10:32:08;;;;;;;7.43;2.28;;;;;;;;;;4969243;29;20031;-57
2024/01/18 10:34:37;;;;;;;6.30;2.53;;;;;;;;;;4956681;29;20031;-55
2024/01/18 10:37:03;;;;;;;3.80;2.27;;;;;;;;;;4940450;29;20031;-57
2024/01/18 10:39:41;;;;;;;6.68;2.60;;;;;;;;;;4957396;29;20032;-57
2024/01/18 10:42:10;;;;;;;5.47;2.17;;;;;;;;;;4956563;29;20031;-54
2024/01/18 10:44:40;;;;;;;5.53;2.10;;;;;;;;;;4958768;29;20028;-55
2024/01/18 10:47:12;;;;;;;7.07;2.70;;;;;;;;;;4940057;29;20039;-56
2024/01/18 10:49:40;;;;;;;7.57;2.83;;;;;;;;;;4957804;29;20043;-55
2024/01/18 10:52:07;;;;;;;8.33;2.30;;;;;;;;;;4951589;29;20116;-58
2024/01/18 10:54:33;;;;;;;9.90;2.93;;;;;;;;;;4954751;29;20068;-56
2024/01/18 10:56:59;;;;;;;8.35;2.83;;;;;;;;;;4959690;29;20051;-56
2024/01/18 10:59:25;;;;;;;8.17;3.03;;;;;;;;;;4955985;29;20043;-57
2024/01/18 11:01:51;;;;;;;7.90;2.80;;;;;;;;;;4964965;29;20047;-57
2024/01/18 11:04:17;;;;;;;7.15;2.72;;;;;;;;;;4960993;29;20048;-57
2024/01/18 11:06:44;;;;;;;8.07;2.95;;;;;;;;;;4963295;29;20038;-56
2024/01/18 11:09:12;;;;;;;9.53;2.37;;;;;;;;;;4956207;29;20121;-57
2024/01/18 11:11:38;;;;;;;9.93;4.13;;;;;;;;;;4962022;29;20031;-58
2024/01/18 11:14:03;;;;;;;12.73;2.97;;;;;;;;;;4954413;29;20384;-57
2024/01/18 11:16:30;;;;;;;6.32;2.35;;;;;;;;;;4957367;29;20068;-57
2024/01/18 11:18:57;;;;;;;7.80;2.07;;;;;;;;;;4955803;29;20043;-57
2024/01/18 11:21:27;;;;;;;5.57;2.53;;;;;;;;;;4956625;29;20031;-58
2024/01/18 11:23:52;;;;;;;5.27;2.70;;;;;;;;;;4956970;29;20027;-57
2024/01/18 11:26:19;;;;;;;7.82;2.20;;;;;;;;;;4964777;29;20084;-56
2024/01/18 11:28:44;;;;;;;5.13;2.20;;;;;;;;;;4958796;29;20027;-57
2024/01/18 11:31:09;;;;;;;5.45;2.47;;;;;;;;;;4961689;29;20066;-58
2024/01/18 11:33:35;;;;;;;5.70;2.35;;;;;;;;;;4957477;29;20194;-58
2024/01/18 11:36:02;;;;;;;12.77;2.42;;;;;;;;;;4960737;29;20039;-58
2024/01/18 11:38:33;;;;;;;5.27;2.03;;;;;;;;;;4958597;29;20045;-58
2024/01/18 11:41:09;;;;;;;3.70;1.97;;;;;;;;;;4956044;29;20047;-58
2024/01/18 11:43:54;;;;;;;7.43;3.22;;;;;;;;;;4942497;29;20036;-56
2024/01/18 11:46:32;;;;;;;7.67;2.17;;;;;;;;;;4942882;29;20072;-58
2024/01/18 11:48:57;;;;;;;6.53;1.90;;;;;;;;;;4960163;29;20035;-56
2024/01/18 11:51:23;;;;;;;7.68;1.95;;;;;;;;;;4962457;29;20083;-56
2024/01/18 11:53:48;;;;;;;10.75;3.83;;;;;;;;;;4959818;29;20038;-57
2024/01/18 11:56:14;;;;;;;5.23;2.43;;;;;;;;;;4961595;29;20119;-58
2024/01/18 11:58:39;;;;;;;6.90;1.70;;;;;;;;;;4963698;29;20111;-59
2024/01/18 12:01:04;;;;;;;7.80;2.30;;;;;;;;;;4958506;29;20032;-56
2024/01/18 12:03:30;;;;;;;5.38;1.60;;;;;;;;;;4966424;29;20050;-59
2024/01/18 12:05:55;;;;;;;9.80;2.00;;;;;;;;;;4962102;29;20032;-59
2024/01/18 12:08:21;;;;;;;7.03;1.90;;;;;;;;;;4961330;29;20038;-58
2024/01/18 12:10:47;;;;;;;4.30;1.60;;;;;;;;;;4960269;29;20035;-58
2024/01/18 12:13:12;;;;;;;5.13;1.90;;;;;;;;;;4958886;29;20055;-57
2024/01/18 12:15:37;;;;;;;5.63;1.60;;;;;;;;;;4966267;29;20038;-59
2024/01/18 12:18:03;;;;;;;4.50;1.80;;;;;;;;;;4961680;29;20095;-60
2024/01/18 12:20:28;;;;;;;5.27;1.17;;;;;;;;;;4959376;29;20076;-58
2024/01/18 12:22:54;;;;;;;4.00;1.57;;;;;;;;;;4964194;29;20032;-58
2024/01/18 12:25:20;;;;;;;8.93;3.17;;;;;;;;;;4959172;29;20149;-60
2024/01/18 12:27:45;;;;;;;5.13;1.60;;;;;;;;;;4962243;29;20039;-56
2024/01/18 12:30:10;;;;;;;6.83;1.93;;;;;;;;;;4959688;29;21415;-59
2024/01/18 12:32:36;;;;;;;6.95;2.10;;;;;;;;;;4964553;29;20031;-59
2024/01/18 12:35:03;;;;;;;;;;;;;;;;;;4961378;29;20032;-59
2024/01/18 12:37:29;;;;;;;10.90;2.20;;;;;;;;;;4959521;29;19990;-60
2024/01/18 12:39:54;;;;;;;6.03;2.10;;;;;;;;;;4959103;29;20058;-60
2024/01/18 12:42:23;;;;;;;4.28;1.73;;;;;;;;;;4963280;29;20027;-60
2024/01/18 12:44:52;;;;;;;7.67;3.10;;;;;;;;;;4955549;29;20055;-60
2024/01/18 12:47:17;;;;;;;6.30;2.37;;;;;;;;;;4960257;29;20032;-60
2024/01/18 12:49:43;;;;;;;6.65;1.15;;;;;;;;;;4959610;29;20048;-60
2024/01/18 12:52:08;;;;;;;6.97;2.22;;;;;;;;;;4959800;29;20039;-65
2024/01/18 12:54:34;;;;;;;;;;;;;;;;;;4958975;29;20031;-61
2024/01/18 12:57:00;;;;;;;4.70;1.00;;;;;;;;;;4962939;29;19922;-61
2024/01/18 12:59:26;;;;;;;4.28;1.48;;;;;;;;;;4958712;29;20045;-61
2024/01/18 13:01:52;;;;;;;2.58;1.30;;;;;;;;;;4958769;29;20047;-60
2024/01/18 13:04:22;;;;;;;3.10;1.30;;;;;;;;;;4958416;29;20062;-61
2024/01/18 13:06:49;;;;;;;3.33;0.70;;;;;;;;;;4957756;29;20023;-61
2024/01/18 13:09:16;;;;;;;4.45;0.93;;;;;;;;;;4952154;29;20080;-61
2024/01/18 13:11:42;;;;;;;1.35;0.80;;;;;;;;;;4959241;29;20038;-62
2024/01/18 13:14:09;;;;;;;3.70;1.15;;;;;;;;;;4958355;29;20031;-61
2024/01/18 13:16:40;;;;;;;3.45;1.20;;;;;;;;;;4961390;29;20048;-61
2024/01/18 13:19:06;;;;;;;5.55;1.10;;;;;;;;;;4954629;29;20043;-61
2024/01/18 13:21:32;;;;;;;2.10;0.80;;;;;;;;;;4960155;29;20034;-62
2024/01/18 13:23:58;;;;;;;5.45;1.48;;;;;;;;;;4959039;29;20141;-61
2024/01/18 13:26:24;;;;;;;5.78;0.93;;;;;;;;;;4946876;29;20103;-61
2024/01/18 13:28:50;;;;;;;1.85;0.90;;;;;;;;;;4963080;29;20118;-61
2024/01/18 13:31:16;;;;;;;1.85;0.73;;;;;;;;;;4963150;29;20042;-60
2024/01/18 13:33:41;;;;;;;;;;;;;;;;;;4962362;29;20031;-61
2024/01/18 13:36:08;;;;;;;3.63;1.00;;;;;;;;;;4959070;29;19918;-62
2024/01/18 13:38:34;;;;;;;2.15;0.68;;;;;;;;;;4960753;29;20058;-60
2024/01/18 13:41:00;;;;;;;2.00;0.60;;;;;;;;;;4957093;29;20040;-60
2024/01/18 13:43:25;;;;;;;4.85;0.95;;;;;;;;;;4962211;29;20042;-61
2024/01/18 13:45:51;;;;;;;1.40;0.63;;;;;;;;;;4957457;29;20047;-60
2024/01/18 13:48:16;;;;;;;;;;;;;;;;;;4957447;29;20031;-61
2024/01/18 13:50:43;;;;;;;3.10;1.10;;;;;;;;;;4956424;29;19974;-60
2024/01/18 13:53:09;;;;;;;4.85;1.55;;;;;;;;;;4961512;29;20024;-61
2024/01/18 13:55:34;;;;;;;4.10;1.45;;;;;;;;;;4960289;29;20071;-60
2024/01/18 13:58:00;;;;;;;;;;;;;;;;;;4965578;29;20039;-60
2024/01/18 14:00:25;;;;;;;6.30;1.55;;;;;;;;;;4957606;29;19911;-62
2024/01/18 14:02:51;;;;;;;;;;;;;;;;;;4960440;29;20027;-60
2024/01/18 14:05:16;;;;;;;5.35;1.20;;;;;;;;;;4956817;29;19938;-60
2024/01/18 14:07:42;;;;;;;2.38;1.15;;;;;;;;;;4959966;29;20107;-61
2024/01/18 14:10:07;;;;;;;;;;;;;;;;;;4957943;29;20139;-60
2024/01/18 14:12:33;;;;;;;4.30;0.90;;;;;;;;;;4961016;29;19914;-60
2024/01/18 14:14:59;;;;;;;;;;;;;;;;;;4962867;29;20036;-60
2024/01/18 14:17:24;;;;;;;5.30;1.13;;;;;;;;;;4962451;29;19974;-60
2024/01/18 14:19:49;;;;;;;3.53;0.80;;;;;;;;;;4958311;29;20095;-61
2024/01/18 14:22:14;;;;;;;;;;;;;;;;;;4957629;29;20067;-60
2024/01/18 14:24:41;;;;;;;3.77;1.10;;;;;;;;;;4957028;29;19915;-59
2024/01/18 14:27:07;;;;;;;3.07;0.93;;;;;;;;;;4957300;29;20030;-60